ワルシャワ の空港の天気 - METARとTAF

ワルシャワ・フレデリック・ショパン空港 ( EPWA / WAW ) - ポーランド ワルシャワ
飛行場実況気象(Metar)
観測時間05/28 13:00 CEST (05/28 11:00 UTC)
風向・風速西南西 7m/s
視程10km以上
天気現象弱いしゅう雨
少しの雲 雲底高度 700m
全天の4割程度の雲 雲底高度 1220m
気温11℃
湿度71%
気圧1009hPa
METAREPWA 281100Z 24013KT 9999 -SHRA FEW023 SCT040CB 11/06 Q1009 TEMPO SHRA
過去の天気等 Google飛行場航空写真 Wunderground天気予報

過去48時間のMETAR

飛行場予報(TAF)
発表時間: 5/28 10:30 CEST (5/28 08:30 UTC)
予報対象時間: 28日11時 CEST ~ 29日11時 CEST
風向・風速西 8m/s
視程10km以上
全天の4割程度の雲 雲底高度 1070m
28日11時 CEST ~ 28日22時 CEST に一時的に
天気現象弱いしゅう雨
全天の8割程度の積乱雲 雲底高度 760m
28日11時 CEST ~ 28日18時 CEST に 確率 40% で一時的に
風向・風速西 9m/s 瞬間風速 16m/s
視程3000m
天気現象雷雨
全天の4割程度の雲 雲底高度 210m
全天の8割程度の積乱雲 雲底高度 430m
28日22時 CEST から 確率 40% で
全天の8割程度の雲 雲底高度 430m
29日8時 CEST ~ 29日11時 CEST に一時的に
全天の8割程度の塔状積雲 雲底高度 610m
TAF EPWA 280830Z 2809/2909 26015KT 9999 SCT035
TEMPO 2809/2820 -SHRA BKN025CB
PROB40 TEMPO 2809/2816 28018G32KT 3000 TSRA SCT007 BKN014CB
PROB40 2820/2906 BKN014
TEMPO 2906/2909 BKN020TCU